Time;durP1;ratioP1;P1;durP2;ratioP2;P2;SDS_P1;SDS_P2;PMS_P1;PMS_P2;Temp;Humidity;BMP_temperature;BMP_pressure;BME280_temperature;BME280_humidity;BME280_pressure;Samples;Min_cycle;Max_cycle;Signal;HPM_P1;HPM_P2
2024/01/20 00:00:15;;;;;;;8.00;4.80;;;;;;;;;;4938525;29;20039;-58
2024/01/20 00:02:41;;;;;;;5.25;4.20;;;;;;;;;;4936934;29;20122;-59
2024/01/20 00:05:07;;;;;;;7.20;4.35;;;;;;;;;;4938435;29;20114;-57
2024/01/20 00:07:32;;;;;;;9.48;4.95;;;;;;;;;;4933045;29;20035;-58
2024/01/20 00:09:58;;;;;;;5.72;4.53;;;;;;;;;;4934808;29;20039;-57
2024/01/20 00:12:23;;;;;;;7.00;4.60;;;;;;;;;;4938870;29;20422;-59
2024/01/20 00:14:48;;;;;;;4.55;4.15;;;;;;;;;;4935769;29;20087;-53
2024/01/20 00:17:14;;;;;;;5.75;4.40;;;;;;;;;;4930975;29;20436;-58
2024/01/20 00:19:39;;;;;;;5.30;3.75;;;;;;;;;;4935660;29;20498;-58
2024/01/20 00:22:05;;;;;;;7.60;4.25;;;;;;;;;;4932254;29;20491;-58
2024/01/20 00:24:30;;;;;;;5.90;4.35;;;;;;;;;;4932515;29;20058;-58
2024/01/20 00:26:55;;;;;;;6.80;4.63;;;;;;;;;;4932568;29;20035;-56
2024/01/20 00:29:21;;;;;;;15.45;7.78;;;;;;;;;;4934468;29;20032;-59
2024/01/20 00:31:47;;;;;;;12.00;6.28;;;;;;;;;;4929557;29;20054;-56
2024/01/20 00:34:12;;;;;;;10.55;6.70;;;;;;;;;;4932771;29;20023;-58
2024/01/20 00:36:38;;;;;;;8.00;6.07;;;;;;;;;;4924778;29;20020;-58
2024/01/20 00:39:04;;;;;;;13.63;7.55;;;;;;;;;;4935022;29;20036;-59
2024/01/20 00:41:30;;;;;;;12.30;8.90;;;;;;;;;;4933087;29;20704;-57
2024/01/20 00:43:55;;;;;;;17.88;9.43;;;;;;;;;;4932137;29;20048;-57
2024/01/20 00:46:21;;;;;;;17.98;10.23;;;;;;;;;;4932274;29;20459;-58
2024/01/20 00:48:46;;;;;;;16.77;12.00;;;;;;;;;;4923649;29;20068;-57
2024/01/20 00:51:12;;;;;;;21.20;11.95;;;;;;;;;;4931659;29;20024;-59
2024/01/20 00:53:37;;;;;;;15.63;9.40;;;;;;;;;;4929028;29;20076;-57
2024/01/20 00:56:03;;;;;;;15.75;8.98;;;;;;;;;;4937104;29;20023;-58
2024/01/20 00:58:28;;;;;;;15.63;10.07;;;;;;;;;;4938033;29;20138;-57
2024/01/20 01:00:54;;;;;;;12.73;6.63;;;;;;;;;;4937116;29;20170;-58
2024/01/20 01:03:19;;;;;;;10.60;8.48;;;;;;;;;;4934373;29;20082;-59
2024/01/20 01:05:45;;;;;;;9.68;6.63;;;;;;;;;;4936817;29;20031;-59
2024/01/20 01:08:10;;;;;;;8.68;5.15;;;;;;;;;;4933820;29;20047;-60
2024/01/20 01:10:35;;;;;;;5.60;4.70;;;;;;;;;;4934950;29;20106;-58
2024/01/20 01:13:01;;;;;;;6.40;4.65;;;;;;;;;;4936655;29;20051;-59
2024/01/20 01:15:28;;;;;;;6.82;4.05;;;;;;;;;;4933191;29;20064;-60
2024/01/20 01:17:54;;;;;;;9.88;5.85;;;;;;;;;;4934096;29;20064;-59
2024/01/20 01:20:19;;;;;;;8.30;5.22;;;;;;;;;;4932647;29;20035;-59
2024/01/20 01:22:44;;;;;;;7.63;5.22;;;;;;;;;;4930400;29;20044;-59
2024/01/20 01:25:10;;;;;;;6.07;4.55;;;;;;;;;;4935229;29;20034;-58
2024/01/20 01:27:35;;;;;;;5.85;5.13;;;;;;;;;;4933277;29;20037;-59
2024/01/20 01:30:01;;;;;;;6.57;4.72;;;;;;;;;;4932349;29;20485;-58
2024/01/20 01:32:26;;;;;;;6.88;5.25;;;;;;;;;;4936043;29;20035;-59
2024/01/20 01:34:52;;;;;;;5.97;3.78;;;;;;;;;;4936124;29;20106;-56
2024/01/20 01:37:17;;;;;;;6.43;5.07;;;;;;;;;;4931242;29;20406;-58
2024/01/20 01:39:42;;;;;;;6.30;4.60;;;;;;;;;;4934043;29;20489;-59
2024/01/20 01:42:09;;;;;;;5.88;4.30;;;;;;;;;;4927872;29;20100;-57
2024/01/20 01:44:35;;;;;;;10.65;5.63;;;;;;;;;;4936210;29;20024;-59
2024/01/20 01:47:00;;;;;;;7.32;5.32;;;;;;;;;;4935435;29;20040;-59
2024/01/20 01:49:26;;;;;;;5.93;5.10;;;;;;;;;;4936085;29;20355;-58
2024/01/20 01:51:52;;;;;;;10.43;5.28;;;;;;;;;;4937088;29;20059;-57
2024/01/20 01:54:19;;;;;;;6.32;3.70;;;;;;;;;;4936213;29;20044;-58
2024/01/20 01:56:47;;;;;;;5.13;3.58;;;;;;;;;;4929558;29;20402;-58
2024/01/20 01:59:13;;;;;;;7.15;4.95;;;;;;;;;;4935494;29;20399;-59
2024/01/20 02:01:38;;;;;;;7.13;4.88;;;;;;;;;;4939335;29;20071;-58
2024/01/20 02:04:03;;;;;;;5.18;4.47;;;;;;;;;;4938300;29;20028;-57
2024/01/20 02:06:29;;;;;;;6.25;5.15;;;;;;;;;;4939574;29;20474;-59
2024/01/20 02:08:55;;;;;;;8.93;6.38;;;;;;;;;;4936193;29;20119;-57
2024/01/20 02:11:21;;;;;;;7.70;4.18;;;;;;;;;;4938942;29;20470;-59
2024/01/20 02:13:46;;;;;;;5.25;4.47;;;;;;;;;;4934535;29;20035;-58
2024/01/20 02:16:12;;;;;;;7.95;4.30;;;;;;;;;;4935724;29;20100;-59
2024/01/20 02:18:37;;;;;;;5.03;4.50;;;;;;;;;;4940176;29;20663;-59
2024/01/20 02:21:06;;;;;;;5.47;4.82;;;;;;;;;;4940269;29;20035;-57
2024/01/20 02:23:37;;;;;;;8.65;5.95;;;;;;;;;;4930727;29;20048;-59
2024/01/20 02:26:03;;;;;;;5.95;5.22;;;;;;;;;;4929449;29;20028;-57
2024/01/20 02:28:28;;;;;;;5.55;4.95;;;;;;;;;;4934200;29;20042;-58
2024/01/20 02:30:54;;;;;;;5.82;4.72;;;;;;;;;;4934196;29;20032;-59
2024/01/20 02:33:19;;;;;;;7.82;5.15;;;;;;;;;;4939306;29;20478;-59
2024/01/20 02:35:44;;;;;;;6.60;5.97;;;;;;;;;;4935866;29;20067;-58
2024/01/20 02:38:10;;;;;;;6.85;4.68;;;;;;;;;;4939604;29;20024;-58
2024/01/20 02:40:35;;;;;;;6.38;4.13;;;;;;;;;;4931470;29;20055;-58
2024/01/20 02:43:01;;;;;;;7.10;5.05;;;;;;;;;;4939900;29;20044;-59
2024/01/20 02:45:26;;;;;;;6.80;6.10;;;;;;;;;;4935393;29;20066;-59
2024/01/20 02:47:54;;;;;;;6.25;4.65;;;;;;;;;;4939968;29;20032;-57
2024/01/20 02:50:20;;;;;;;6.80;5.60;;;;;;;;;;4937936;29;20043;-60
2024/01/20 02:52:45;;;;;;;7.95;6.20;;;;;;;;;;4939781;29;20039;-59
2024/01/20 02:55:10;;;;;;;6.95;5.72;;;;;;;;;;4938395;29;20032;-60
2024/01/20 02:57:36;;;;;;;6.85;4.88;;;;;;;;;;4934164;29;20047;-60
2024/01/20 03:00:01;;;;;;;6.45;5.22;;;;;;;;;;4933695;29;20075;-59
2024/01/20 03:02:27;;;;;;;6.47;5.70;;;;;;;;;;4933549;29;20056;-60
2024/01/20 03:04:52;;;;;;;6.28;5.60;;;;;;;;;;4933600;29;20032;-58
2024/01/20 03:07:18;;;;;;;7.18;5.60;;;;;;;;;;4937987;29;20839;-57
2024/01/20 03:09:43;;;;;;;5.72;4.65;;;;;;;;;;4938497;29;20023;-60
2024/01/20 03:12:08;;;;;;;7.50;5.13;;;;;;;;;;4939164;29;20039;-58
2024/01/20 03:14:34;;;;;;;10.65;5.68;;;;;;;;;;4938822;29;20123;-57
2024/01/20 03:17:00;;;;;;;8.10;5.30;;;;;;;;;;4936797;29;20043;-59
2024/01/20 03:19:25;;;;;;;9.02;4.85;;;;;;;;;;4939661;29;20061;-59
2024/01/20 03:21:50;;;;;;;7.97;4.95;;;;;;;;;;4935511;29;20148;-58
2024/01/20 03:24:19;;;;;;;6.75;5.10;;;;;;;;;;4937031;29;20391;-59
2024/01/20 03:26:46;;;;;;;6.45;5.18;;;;;;;;;;4933470;29;20043;-60
2024/01/20 03:29:12;;;;;;;6.85;6.15;;;;;;;;;;4939092;29;20032;-59
2024/01/20 03:31:37;;;;;;;7.97;5.72;;;;;;;;;;4930224;29;20028;-58
2024/01/20 03:34:03;;;;;;;7.82;6.07;;;;;;;;;;4938598;29;20039;-59
2024/01/20 03:36:28;;;;;;;7.05;5.10;;;;;;;;;;4935728;29;20473;-58
2024/01/20 03:38:53;;;;;;;5.28;4.53;;;;;;;;;;4930268;29;20039;-57
2024/01/20 03:41:19;;;;;;;6.45;4.85;;;;;;;;;;4928216;29;20023;-58
2024/01/20 03:43:44;;;;;;;11.35;7.45;;;;;;;;;;4937394;29;20406;-58
2024/01/20 03:46:10;;;;;;;7.57;5.20;;;;;;;;;;4938352;29;20035;-58
2024/01/20 03:48:35;;;;;;;7.65;5.93;;;;;;;;;;4934076;29;20522;-58
2024/01/20 03:51:02;;;;;;;5.72;4.95;;;;;;;;;;4937696;29;20031;-59
2024/01/20 03:53:28;;;;;;;8.30;5.30;;;;;;;;;;4937423;29;20142;-58
2024/01/20 03:55:53;;;;;;;4.82;3.83;;;;;;;;;;4932709;29;20075;-59
2024/01/20 03:58:19;;;;;;;6.82;4.07;;;;;;;;;;4938444;29;20103;-58
2024/01/20 04:00:44;;;;;;;7.60;5.32;;;;;;;;;;4938725;29;20037;-56
2024/01/20 04:03:09;;;;;;;5.50;4.72;;;;;;;;;;4937996;29;20031;-58
2024/01/20 04:05:36;;;;;;;5.53;4.65;;;;;;;;;;4932548;29;20044;-58
2024/01/20 04:08:02;;;;;;;6.82;5.50;;;;;;;;;;4932526;29;20110;-57
2024/01/20 04:10:27;;;;;;;6.00;4.60;;;;;;;;;;4933570;29;20032;-57
2024/01/20 04:12:53;;;;;;;7.07;4.55;;;;;;;;;;4937573;29;20035;-57
2024/01/20 04:15:18;;;;;;;7.00;4.93;;;;;;;;;;4937376;29;20078;-59
2024/01/20 04:17:44;;;;;;;7.88;5.43;;;;;;;;;;4935387;29;20063;-59
2024/01/20 04:20:09;;;;;;;6.47;5.15;;;;;;;;;;4931054;29;20080;-57
2024/01/20 04:22:35;;;;;;;7.13;6.43;;;;;;;;;;4937402;29;20083;-59
2024/01/20 04:25:00;;;;;;;7.22;5.03;;;;;;;;;;4933659;29;20110;-58
2024/01/20 04:27:25;;;;;;;8.30;5.13;;;;;;;;;;4938189;29;20099;-59
2024/01/20 04:29:51;;;;;;;8.45;5.38;;;;;;;;;;4937049;29;20435;-59
2024/01/20 04:32:16;;;;;;;7.47;5.88;;;;;;;;;;4936753;29;20047;-59
2024/01/20 04:34:41;;;;;;;6.82;5.30;;;;;;;;;;4937684;29;20030;-59
2024/01/20 04:37:07;;;;;;;6.25;5.03;;;;;;;;;;4931683;29;20044;-58
2024/01/20 04:39:32;;;;;;;7.95;5.68;;;;;;;;;;4929624;29;20028;-59
2024/01/20 04:41:58;;;;;;;8.82;7.93;;;;;;;;;;4937436;29;20102;-58
2024/01/20 04:44:23;;;;;;;9.60;5.70;;;;;;;;;;4938279;29;20524;-58
2024/01/20 04:46:48;;;;;;;7.78;5.30;;;;;;;;;;4933693;29;20079;-58
2024/01/20 04:49:14;;;;;;;8.93;6.18;;;;;;;;;;4938014;29;20024;-57
2024/01/20 04:51:39;;;;;;;9.35;6.10;;;;;;;;;;4936913;29;20497;-57
2024/01/20 04:54:05;;;;;;;5.38;4.35;;;;;;;;;;4937308;29;20532;-57
2024/01/20 04:56:30;;;;;;;8.63;5.20;;;;;;;;;;4932582;29;20378;-58
2024/01/20 04:58:56;;;;;;;8.20;4.75;;;;;;;;;;4931056;29;20012;-58
2024/01/20 05:01:22;;;;;;;8.43;7.05;;;;;;;;;;4936299;29;20035;-57
2024/01/20 05:03:47;;;;;;;7.40;5.53;;;;;;;;;;4932834;29;20048;-59
2024/01/20 05:06:13;;;;;;;8.63;5.55;;;;;;;;;;4937458;29;20078;-59
2024/01/20 05:08:38;;;;;;;8.27;6.13;;;;;;;;;;4936006;29;20090;-57
2024/01/20 05:11:04;;;;;;;7.18;5.20;;;;;;;;;;4930493;29;20016;-59
2024/01/20 05:13:29;;;;;;;8.45;5.93;;;;;;;;;;4932164;29;20095;-59
2024/01/20 05:15:55;;;;;;;5.43;4.32;;;;;;;;;;4933551;29;20054;-59
2024/01/20 05:18:20;;;;;;;5.70;5.15;;;;;;;;;;4936798;29;20042;-59
2024/01/20 05:20:46;;;;;;;8.65;7.90;;;;;;;;;;4935981;29;20020;-57
2024/01/20 05:23:11;;;;;;;9.07;5.28;;;;;;;;;;4935070;29;20071;-57
2024/01/20 05:25:37;;;;;;;9.20;5.63;;;;;;;;;;4935152;29;20304;-59
2024/01/20 05:28:03;;;;;;;9.55;6.57;;;;;;;;;;4927923;29;20586;-58
2024/01/20 05:30:28;;;;;;;8.15;5.57;;;;;;;;;;4937234;29;20422;-58
2024/01/20 05:32:53;;;;;;;9.50;6.10;;;;;;;;;;4932272;29;20032;-57
2024/01/20 05:35:19;;;;;;;10.77;7.75;;;;;;;;;;4935225;29;20726;-59
2024/01/20 05:37:44;;;;;;;6.85;6.13;;;;;;;;;;4937622;29;20490;-58
2024/01/20 05:40:10;;;;;;;9.68;6.60;;;;;;;;;;4940427;29;20114;-59
2024/01/20 05:42:36;;;;;;;10.18;6.82;;;;;;;;;;4940357;29;20103;-57
2024/01/20 05:45:01;;;;;;;7.38;5.53;;;;;;;;;;4940893;29;20087;-59
2024/01/20 05:47:27;;;;;;;9.00;6.20;;;;;;;;;;4932872;29;20098;-59
2024/01/20 05:49:52;;;;;;;8.45;6.40;;;;;;;;;;4941248;29;20027;-58
2024/01/20 05:52:17;;;;;;;11.50;6.93;;;;;;;;;;4937164;29;20150;-57
2024/01/20 05:54:43;;;;;;;10.32;6.18;;;;;;;;;;4938495;29;20363;-56
2024/01/20 05:57:08;;;;;;;10.10;6.03;;;;;;;;;;4933814;29;20119;-56
2024/01/20 05:59:34;;;;;;;9.35;7.47;;;;;;;;;;4941323;29;20059;-58
2024/01/20 06:02:00;;;;;;;11.30;8.10;;;;;;;;;;4937864;29;20044;-58
2024/01/20 06:04:25;;;;;;;9.32;8.43;;;;;;;;;;4930113;29;20036;-58
2024/01/20 06:06:51;;;;;;;9.23;6.57;;;;;;;;;;4937144;29;20039;-59
2024/01/20 06:09:16;;;;;;;11.93;7.95;;;;;;;;;;4932477;29;20183;-58
2024/01/20 06:11:42;;;;;;;9.60;6.38;;;;;;;;;;4938516;29;20422;-57
2024/01/20 06:14:07;;;;;;;11.77;7.43;;;;;;;;;;4939111;29;20030;-59
2024/01/20 06:16:38;;;;;;;11.48;8.10;;;;;;;;;;4938434;29;20079;-59
2024/01/20 06:19:05;;;;;;;7.32;6.28;;;;;;;;;;4939700;29;20032;-59
2024/01/20 06:21:30;;;;;;;8.90;6.95;;;;;;;;;;4939771;29;20036;-57
2024/01/20 06:23:56;;;;;;;7.68;6.35;;;;;;;;;;4934960;29;20083;-55
2024/01/20 06:26:21;;;;;;;7.93;6.60;;;;;;;;;;4937729;29;20110;-59
2024/01/20 06:28:46;;;;;;;8.63;6.47;;;;;;;;;;4939307;29;20036;-56
2024/01/20 06:31:28;;;;;;;9.07;8.27;;;;;;;;;;4937148;29;20474;-58
2024/01/20 06:33:54;;;;;;;7.85;6.43;;;;;;;;;;4933689;29;20050;-58
2024/01/20 06:36:25;;;;;;;8.23;6.13;;;;;;;;;;4933441;29;20474;-59
2024/01/20 06:38:51;;;;;;;12.50;8.05;;;;;;;;;;4939261;29;20066;-59
2024/01/20 06:41:16;;;;;;;8.15;6.32;;;;;;;;;;4938768;29;20032;-57
2024/01/20 06:43:42;;;;;;;9.63;6.85;;;;;;;;;;4936954;29;21339;-59
2024/01/20 06:46:07;;;;;;;8.35;6.47;;;;;;;;;;4939386;29;20115;-58
2024/01/20 06:48:33;;;;;;;9.00;6.82;;;;;;;;;;4934495;29;20040;-59
2024/01/20 06:51:00;;;;;;;12.30;7.45;;;;;;;;;;4938174;29;20589;-59
2024/01/20 06:53:30;;;;;;;11.98;10.65;;;;;;;;;;4939050;29;20036;-58
2024/01/20 06:55:56;;;;;;;14.07;7.18;;;;;;;;;;4934026;29;20024;-57
2024/01/20 06:58:22;;;;;;;12.30;7.88;;;;;;;;;;4936402;29;20042;-58
2024/01/20 07:00:47;;;;;;;11.05;5.88;;;;;;;;;;4930746;29;20046;-58
2024/01/20 07:03:14;;;;;;;9.85;7.38;;;;;;;;;;4933565;29;20040;-56
2024/01/20 07:05:39;;;;;;;9.05;6.63;;;;;;;;;;4939069;29;20393;-59
2024/01/20 07:08:06;;;;;;;9.52;7.75;;;;;;;;;;4935691;29;20082;-58
2024/01/20 07:10:31;;;;;;;9.93;6.72;;;;;;;;;;4937396;29;20015;-59
2024/01/20 07:12:57;;;;;;;9.20;7.13;;;;;;;;;;4937754;29;20152;-58
2024/01/20 07:15:22;;;;;;;9.13;6.00;;;;;;;;;;4938989;29;20050;-59
2024/01/20 07:17:48;;;;;;;9.00;7.20;;;;;;;;;;4936863;29;20138;-59
2024/01/20 07:20:13;;;;;;;10.48;7.28;;;;;;;;;;4936428;29;20024;-57
2024/01/20 07:22:38;;;;;;;11.20;7.60;;;;;;;;;;4935119;29;20127;-58
2024/01/20 07:25:05;;;;;;;12.77;8.65;;;;;;;;;;4936382;29;20130;-59
2024/01/20 07:27:30;;;;;;;10.10;6.90;;;;;;;;;;4937117;29;20043;-60
2024/01/20 07:29:56;;;;;;;9.80;7.15;;;;;;;;;;4938959;29;20082;-60
2024/01/20 07:32:21;;;;;;;6.63;5.68;;;;;;;;;;4938975;29;20036;-58
2024/01/20 07:34:47;;;;;;;11.20;6.57;;;;;;;;;;4937083;29;20118;-59
2024/01/20 07:37:12;;;;;;;8.30;6.07;;;;;;;;;;4936131;29;20398;-58
2024/01/20 07:39:37;;;;;;;10.40;6.50;;;;;;;;;;4938234;29;20020;-59
2024/01/20 07:42:03;;;;;;;8.35;5.95;;;;;;;;;;4936992;29;20078;-59
2024/01/20 07:44:29;;;;;;;10.13;6.00;;;;;;;;;;4935956;29;20610;-60
2024/01/20 07:46:54;;;;;;;8.13;7.18;;;;;;;;;;4933700;29;20050;-58
2024/01/20 07:49:19;;;;;;;8.43;5.97;;;;;;;;;;4935069;29;20119;-58
2024/01/20 07:51:45;;;;;;;9.35;6.63;;;;;;;;;;4937944;29;20046;-59
2024/01/20 07:54:12;;;;;;;8.63;5.80;;;;;;;;;;4938416;29;20091;-58
2024/01/20 07:56:37;;;;;;;10.05;9.05;;;;;;;;;;4934987;29;20127;-59
2024/01/20 07:59:02;;;;;;;8.90;6.65;;;;;;;;;;4937033;29;20047;-56
2024/01/20 08:01:28;;;;;;;11.07;7.30;;;;;;;;;;4935865;29;20490;-57
2024/01/20 08:03:53;;;;;;;8.30;6.97;;;;;;;;;;4937830;29;20035;-56
2024/01/20 08:06:21;;;;;;;7.32;5.57;;;;;;;;;;4934953;29;20103;-58
2024/01/20 08:08:46;;;;;;;6.88;5.78;;;;;;;;;;4937910;29;20047;-58
2024/01/20 08:11:12;;;;;;;8.43;6.70;;;;;;;;;;4938763;29;20028;-58
2024/01/20 08:13:37;;;;;;;8.68;5.75;;;;;;;;;;4932731;29;20554;-59
2024/01/20 08:16:04;;;;;;;8.93;6.15;;;;;;;;;;4936601;29;20051;-59
2024/01/20 08:18:29;;;;;;;8.63;7.65;;;;;;;;;;4933015;29;20067;-57
2024/01/20 08:20:55;;;;;;;12.27;8.55;;;;;;;;;;4936151;29;20031;-59
2024/01/20 08:23:20;;;;;;;8.00;5.72;;;;;;;;;;4935629;29;20054;-58
2024/01/20 08:25:45;;;;;;;8.63;6.47;;;;;;;;;;4937983;29;20363;-58
2024/01/20 08:28:11;;;;;;;7.47;5.88;;;;;;;;;;4935967;29;20387;-57
2024/01/20 08:30:36;;;;;;;11.75;7.63;;;;;;;;;;4936652;29;20026;-58
2024/01/20 08:33:02;;;;;;;10.85;8.15;;;;;;;;;;4935895;29;20074;-58
2024/01/20 08:35:27;;;;;;;9.50;7.63;;;;;;;;;;4938174;29;20044;-57
2024/01/20 08:37:52;;;;;;;7.88;5.72;;;;;;;;;;4934727;29;20114;-57
2024/01/20 08:40:18;;;;;;;10.43;6.65;;;;;;;;;;4931379;29;20036;-59
2024/01/20 08:42:43;;;;;;;10.65;6.65;;;;;;;;;;4935538;29;20032;-58
2024/01/20 08:45:09;;;;;;;9.95;6.85;;;;;;;;;;4936991;29;20019;-59
2024/01/20 08:47:34;;;;;;;10.32;6.82;;;;;;;;;;4932935;29;20086;-58
2024/01/20 08:50:00;;;;;;;8.02;6.47;;;;;;;;;;4931656;29;20023;-59
2024/01/20 08:52:25;;;;;;;8.40;6.57;;;;;;;;;;4935456;29;20044;-57
2024/01/20 08:54:50;;;;;;;9.05;8.15;;;;;;;;;;4936312;29;20110;-57
2024/01/20 08:57:16;;;;;;;8.38;6.63;;;;;;;;;;4933687;29;20032;-57
2024/01/20 08:59:41;;;;;;;8.27;6.40;;;;;;;;;;4933152;29;20027;-57
2024/01/20 09:02:06;;;;;;;9.23;7.43;;;;;;;;;;4931160;29;20059;-58
2024/01/20 09:04:32;;;;;;;11.05;7.80;;;;;;;;;;4932172;29;20027;-57
2024/01/20 09:06:57;;;;;;;9.77;7.22;;;;;;;;;;4934665;29;20107;-58
2024/01/20 09:09:23;;;;;;;9.73;7.20;;;;;;;;;;4936103;29;20061;-58
2024/01/20 09:11:48;;;;;;;14.07;11.60;;;;;;;;;;4931691;29;20087;-55
2024/01/20 09:14:14;;;;;;;10.32;7.80;;;;;;;;;;4937582;29;20055;-59
2024/01/20 09:16:40;;;;;;;10.70;8.10;;;;;;;;;;4935575;29;20056;-57
2024/01/20 09:19:05;;;;;;;11.43;7.13;;;;;;;;;;4935709;29;20473;-58
2024/01/20 09:21:31;;;;;;;8.98;7.03;;;;;;;;;;4934675;29;20039;-58
2024/01/20 09:23:57;;;;;;;10.65;8.45;;;;;;;;;;4938025;29;20074;-56
2024/01/20 09:26:22;;;;;;;11.50;7.93;;;;;;;;;;4935249;29;20585;-56
2024/01/20 09:28:48;;;;;;;10.55;8.15;;;;;;;;;;4930278;29;20050;-59
2024/01/20 09:31:13;;;;;;;13.25;9.02;;;;;;;;;;4929893;29;20487;-59
2024/01/20 09:33:38;;;;;;;12.23;8.27;;;;;;;;;;4934040;29;20039;-58
2024/01/20 09:36:04;;;;;;;14.60;7.88;;;;;;;;;;4935387;29;20475;-58
2024/01/20 09:38:30;;;;;;;12.07;8.63;;;;;;;;;;4936409;29;20646;-59
2024/01/20 09:40:59;;;;;;;12.68;9.10;;;;;;;;;;4929136;29;20201;-59
2024/01/20 09:43:25;;;;;;;10.65;8.07;;;;;;;;;;4925822;29;20047;-56
2024/01/20 09:45:52;;;;;;;12.25;7.85;;;;;;;;;;4926787;29;20062;-58
2024/01/20 09:48:17;;;;;;;11.20;8.55;;;;;;;;;;4925948;29;20517;-57
2024/01/20 09:50:43;;;;;;;9.82;8.48;;;;;;;;;;4933215;29;20107;-57
2024/01/20 09:53:14;;;;;;;12.40;8.50;;;;;;;;;;4923350;29;20039;-58
2024/01/20 09:55:41;;;;;;;10.32;8.13;;;;;;;;;;4930099;29;20410;-58
2024/01/20 09:58:10;;;;;;;12.45;9.07;;;;;;;;;;4928487;29;20090;-57
2024/01/20 10:00:36;;;;;;;11.52;8.55;;;;;;;;;;4931802;29;20095;-58
2024/01/20 10:03:05;;;;;;;10.70;8.15;;;;;;;;;;4932666;29;20120;-57
2024/01/20 10:05:32;;;;;;;9.23;7.22;;;;;;;;;;4932375;29;20507;-56
2024/01/20 10:07:58;;;;;;;10.20;8.18;;;;;;;;;;4929083;29;20447;-57
2024/01/20 10:10:23;;;;;;;11.73;8.23;;;;;;;;;;4928264;29;20032;-58
2024/01/20 10:13:00;;;;;;;10.35;8.70;;;;;;;;;;4932426;28;20055;-59
2024/01/20 10:15:28;;;;;;;12.25;8.48;;;;;;;;;;4929223;29;20055;-59
2024/01/20 10:17:57;;;;;;;12.70;8.95;;;;;;;;;;4932210;29;20043;-59
2024/01/20 10:20:31;;;;;;;10.88;9.02;;;;;;;;;;4931320;29;20487;-59
2024/01/20 10:23:00;;;;;;;10.57;8.02;;;;;;;;;;4933769;29;20040;-59
2024/01/20 10:25:26;;;;;;;11.40;9.45;;;;;;;;;;4933456;29;20425;-58
2024/01/20 10:27:51;;;;;;;9.23;7.80;;;;;;;;;;4928117;29;20039;-59
2024/01/20 10:30:18;;;;;;;10.10;6.97;;;;;;;;;;4931740;29;20039;-56
2024/01/20 10:32:44;;;;;;;11.27;8.82;;;;;;;;;;4932965;29;20043;-58
2024/01/20 10:35:10;;;;;;;10.25;8.65;;;;;;;;;;4937116;29;20031;-60
2024/01/20 10:37:40;;;;;;;11.43;9.13;;;;;;;;;;4938050;29;20042;-59
2024/01/20 10:40:12;;;;;;;12.90;8.40;;;;;;;;;;4935555;29;20114;-61
2024/01/20 10:42:54;;;;;;;10.45;7.40;;;;;;;;;;4934792;29;20059;-58
2024/01/20 10:45:19;;;;;;;12.90;8.10;;;;;;;;;;4935897;29;20032;-60
2024/01/20 10:48:06;;;;;;;11.00;7.50;;;;;;;;;;4932082;28;20035;-60
2024/01/20 10:50:35;;;;;;;9.98;7.20;;;;;;;;;;4933646;29;20391;-59
2024/01/20 10:53:03;;;;;;;10.63;9.05;;;;;;;;;;4935019;29;20047;-59
2024/01/20 10:55:30;;;;;;;10.85;8.77;;;;;;;;;;4935816;29;20119;-60
2024/01/20 10:57:57;;;;;;;9.70;7.65;;;;;;;;;;4936861;29;20047;-60
2024/01/20 11:00:23;;;;;;;9.45;7.80;;;;;;;;;;4932722;29;20032;-60
2024/01/20 11:02:49;;;;;;;9.50;6.93;;;;;;;;;;4932977;29;20051;-60
2024/01/20 11:05:20;;;;;;;10.07;7.68;;;;;;;;;;4928884;29;20028;-60
2024/01/20 11:08:04;;;;;;;11.18;7.60;;;;;;;;;;4933135;29;20051;-58
2024/01/20 11:10:29;;;;;;;10.93;7.30;;;;;;;;;;4930523;29;20055;-60
2024/01/20 11:13:09;;;;;;;12.50;7.10;;;;;;;;;;4937776;29;20046;-60
2024/01/20 11:15:34;;;;;;;9.27;7.43;;;;;;;;;;4934357;29;20134;-59
2024/01/20 11:18:00;;;;;;;10.45;8.95;;;;;;;;;;4934849;29;20123;-59
2024/01/20 11:20:27;;;;;;;11.27;9.02;;;;;;;;;;4935599;29;20035;-56
2024/01/20 11:22:56;;;;;;;9.85;8.45;;;;;;;;;;4930028;29;20063;-60
2024/01/20 11:25:25;;;;;;;12.82;8.60;;;;;;;;;;4939095;29;20039;-59
2024/01/20 11:27:57;;;;;;;10.05;7.60;;;;;;;;;;4933506;29;20028;-61
2024/01/20 11:30:34;;;;;;;12.23;7.68;;;;;;;;;;4935017;29;20094;-60
2024/01/20 11:33:00;;;;;;;8.80;6.82;;;;;;;;;;4932649;29;20040;-60
2024/01/20 11:35:25;;;;;;;8.20;7.20;;;;;;;;;;4933521;29;20035;-61
2024/01/20 11:37:55;;;;;;;10.38;7.38;;;;;;;;;;4933615;29;20127;-59
2024/01/20 11:40:21;;;;;;;10.02;6.60;;;;;;;;;;4938025;29;20031;-60
2024/01/20 11:42:47;;;;;;;10.25;7.88;;;;;;;;;;4936629;28;20050;-58
2024/01/20 11:45:12;;;;;;;11.65;6.95;;;;;;;;;;4935274;29;20503;-59
2024/01/20 11:47:38;;;;;;;10.05;6.95;;;;;;;;;;4933824;29;20146;-59
2024/01/20 11:50:04;;;;;;;7.95;6.28;;;;;;;;;;4934971;29;20028;-60
2024/01/20 11:52:29;;;;;;;8.30;6.85;;;;;;;;;;4933873;29;20054;-61
2024/01/20 11:54:55;;;;;;;8.25;6.15;;;;;;;;;;4934512;29;20031;-61
2024/01/20 11:57:26;;;;;;;9.68;6.60;;;;;;;;;;4935576;29;20044;-60
2024/01/20 11:59:53;;;;;;;10.05;7.55;;;;;;;;;;4937138;29;20637;-60
2024/01/20 12:02:20;;;;;;;10.95;7.97;;;;;;;;;;4931993;29;20750;-59
2024/01/20 12:04:45;;;;;;;9.80;7.03;;;;;;;;;;4936727;29;20020;-59
2024/01/20 12:07:11;;;;;;;9.82;8.07;;;;;;;;;;4933244;28;20589;-60
2024/01/20 12:09:36;;;;;;;10.25;7.03;;;;;;;;;;4931167;29;20027;-57
2024/01/20 12:12:03;;;;;;;9.95;7.32;;;;;;;;;;4932370;29;20029;-58
2024/01/20 12:14:28;;;;;;;12.10;8.18;;;;;;;;;;4932366;29;20023;-60
2024/01/20 12:16:55;;;;;;;9.95;7.90;;;;;;;;;;4935568;29;20040;-60
2024/01/20 12:19:20;;;;;;;9.45;8.55;;;;;;;;;;4935835;29;20063;-59
2024/01/20 12:21:46;;;;;;;12.38;9.65;;;;;;;;;;4934228;29;20067;-59
2024/01/20 12:24:14;;;;;;;12.27;9.02;;;;;;;;;;4933393;29;20059;-57
2024/01/20 12:26:41;;;;;;;9.10;8.00;;;;;;;;;;4935612;29;20027;-59
2024/01/20 12:29:06;;;;;;;10.10;7.20;;;;;;;;;;4932307;29;20021;-60
2024/01/20 12:31:32;;;;;;;9.50;8.30;;;;;;;;;;4933850;29;20032;-59
2024/01/20 12:33:57;;;;;;;10.25;8.18;;;;;;;;;;4933789;29;20027;-60
2024/01/20 12:36:23;;;;;;;10.65;8.50;;;;;;;;;;4932998;29;20412;-57
2024/01/20 12:38:48;;;;;;;10.25;8.30;;;;;;;;;;4932136;29;20036;-60
2024/01/20 12:41:14;;;;;;;11.43;9.13;;;;;;;;;;4929269;29;20036;-61
2024/01/20 12:43:40;;;;;;;9.65;7.88;;;;;;;;;;4930520;29;20031;-61
2024/01/20 12:46:06;;;;;;;9.43;7.70;;;;;;;;;;4936711;29;20042;-61
2024/01/20 12:48:32;;;;;;;9.23;7.68;;;;;;;;;;4931893;29;20051;-61
2024/01/20 12:50:59;;;;;;;10.65;6.95;;;;;;;;;;4936929;29;20590;-61
2024/01/20 12:53:24;;;;;;;11.70;8.65;;;;;;;;;;4931366;29;20062;-60
2024/01/20 12:55:50;;;;;;;10.40;8.38;;;;;;;;;;4933891;29;20028;-60
2024/01/20 12:58:15;;;;;;;10.52;6.70;;;;;;;;;;4931891;29;20063;-61
2024/01/20 13:00:41;;;;;;;12.23;8.75;;;;;;;;;;4934776;29;20508;-62
2024/01/20 13:03:06;;;;;;;9.20;7.18;;;;;;;;;;4934893;29;20119;-60
2024/01/20 13:05:31;;;;;;;10.18;7.60;;;;;;;;;;4930956;29;20059;-61
2024/01/20 13:07:57;;;;;;;9.05;7.38;;;;;;;;;;4937146;29;20074;-61
2024/01/20 13:10:22;;;;;;;12.18;8.18;;;;;;;;;;4937064;29;20031;-61
2024/01/20 13:12:48;;;;;;;8.60;7.03;;;;;;;;;;4932895;29;20142;-61
2024/01/20 13:15:13;;;;;;;10.98;8.68;;;;;;;;;;4934389;29;20518;-60
2024/01/20 13:17:38;;;;;;;8.75;7.55;;;;;;;;;;4931191;29;20038;-60
2024/01/20 13:20:04;;;;;;;10.35;7.72;;;;;;;;;;4926068;29;20035;-60
2024/01/20 13:22:30;;;;;;;10.77;8.38;;;;;;;;;;4928824;29;20055;-61
2024/01/20 13:24:57;;;;;;;10.93;6.93;;;;;;;;;;4934348;29;20023;-61
2024/01/20 13:27:23;;;;;;;10.13;8.60;;;;;;;;;;4932551;29;20470;-60
2024/01/20 13:29:48;;;;;;;10.10;8.18;;;;;;;;;;4928885;29;20559;-61
2024/01/20 13:32:14;;;;;;;9.68;8.52;;;;;;;;;;4936148;29;20082;-61
2024/01/20 13:34:40;;;;;;;9.90;8.60;;;;;;;;;;4936633;29;20068;-61
2024/01/20 13:37:05;;;;;;;10.73;9.57;;;;;;;;;;4933192;29;20532;-61
2024/01/20 13:39:31;;;;;;;8.68;7.88;;;;;;;;;;4932801;29;20493;-61
2024/01/20 13:41:58;;;;;;;10.35;9.25;;;;;;;;;;4927631;29;20045;-61
2024/01/20 13:44:23;;;;;;;11.10;7.80;;;;;;;;;;4934706;29;20027;-61
2024/01/20 13:46:49;;;;;;;12.63;10.77;;;;;;;;;;4936316;29;20039;-61
2024/01/20 13:49:14;;;;;;;10.85;8.30;;;;;;;;;;4933955;29;20049;-60
2024/01/20 13:51:40;;;;;;;9.60;7.28;;;;;;;;;;4936580;29;20039;-61
2024/01/20 13:54:05;;;;;;;10.73;7.10;;;;;;;;;;4932876;29;20034;-61
2024/01/20 13:56:30;;;;;;;11.80;8.80;;;;;;;;;;4931898;28;20059;-60
2024/01/20 13:58:56;;;;;;;10.25;8.13;;;;;;;;;;4937413;29;20025;-61
2024/01/20 14:01:22;;;;;;;10.52;7.78;;;;;;;;;;4944262;29;20043;-61
2024/01/20 14:03:51;;;;;;;9.07;8.18;;;;;;;;;;4939225;29;20122;-60
2024/01/20 14:06:16;;;;;;;12.25;8.52;;;;;;;;;;4935079;29;20035;-61
2024/01/20 14:08:42;;;;;;;12.63;9.55;;;;;;;;;;4939166;29;20039;-60
2024/01/20 14:11:08;;;;;;;9.50;7.90;;;;;;;;;;4937786;29;20027;-61
2024/01/20 14:13:33;;;;;;;10.20;7.25;;;;;;;;;;4935256;29;20039;-61
2024/01/20 14:16:00;;;;;;;10.50;8.73;;;;;;;;;;4939841;29;20036;-61
2024/01/20 14:18:26;;;;;;;9.93;8.93;;;;;;;;;;4938141;29;20035;-61
2024/01/20 14:20:51;;;;;;;13.75;9.23;;;;;;;;;;4939377;29;20115;-61
2024/01/20 14:23:17;;;;;;;8.43;7.13;;;;;;;;;;4938755;29;20032;-61
2024/01/20 14:25:43;;;;;;;8.45;7.65;;;;;;;;;;4936818;29;20064;-62
2024/01/20 14:28:08;;;;;;;9.02;7.43;;;;;;;;;;4937873;29;20057;-61
2024/01/20 14:30:34;;;;;;;10.43;8.02;;;;;;;;;;4939151;29;20031;-61